Time;durP1;ratioP1;P1;durP2;ratioP2;P2;SDS_P1;SDS_P2;PMS_P1;PMS_P2;Temp;Humidity;BMP_temperature;BMP_pressure;BME280_temperature;BME280_humidity;BME280_pressure;Samples;Min_cycle;Max_cycle;Signal;HPM_P1;HPM_P2
2023/05/19 00:00:19;;;;;;;0.80;0.70;;;12.60;97.60;;;;;;5073913;28;20462;-81
2023/05/19 00:02:46;;;;;;;8.10;1.40;;;12.60;97.40;;;;;;5073533;28;20477;-81
2023/05/19 00:05:17;;;;;;;2.03;0.73;;;12.70;97.30;;;;;;5073876;28;20801;-81
2023/05/19 00:07:45;;;;;;;2.33;0.93;;;12.60;97.40;;;;;;5073745;28;20476;-81
2023/05/19 00:10:13;;;;;;;1.10;0.77;;;12.60;97.60;;;;;;5073730;28;20827;-81
2023/05/19 00:12:42;;;;;;;0.90;0.70;;;12.60;97.70;;;;;;5073672;28;20441;-81
2023/05/19 00:15:10;;;;;;;1.30;1.10;;;12.60;97.90;;;;;;5073512;28;20474;-81
2023/05/19 00:17:37;;;;;;;2.80;1.50;;;12.50;98.20;;;;;;5073620;28;20445;-81
2023/05/19 00:20:06;;;;;;;0.77;0.77;;;12.50;98.70;;;;;;5073617;28;20449;-81
2023/05/19 00:22:33;;;;;;;0.90;0.90;;;12.50;98.20;;;;;;5073593;28;20456;-81
2023/05/19 00:25:00;;;;;;;2.40;0.80;;;12.50;97.60;;;;;;5073455;28;20478;-81
2023/05/19 00:27:27;;;;;;;4.23;1.00;;;12.50;97.90;;;;;;5073456;28;20484;-81
2023/05/19 00:29:55;;;;;;;0.80;0.70;;;12.40;98.00;;;;;;5073504;28;20460;-81
2023/05/19 00:32:21;;;;;;;6.70;1.73;;;12.30;98.20;;;;;;5073190;28;20446;-81
2023/05/19 00:34:48;;;;;;;2.53;0.97;;;12.30;98.90;;;;;;5073373;28;20477;-81
2023/05/19 00:37:15;;;;;;;0.80;0.63;;;12.20;99.80;;;;;;5072487;28;20819;-81
2023/05/19 00:39:42;;;;;;;1.20;0.90;;;12.20;99.30;;;;;;5073397;28;20456;-81
2023/05/19 00:42:09;;;;;;;1.33;1.23;;;12.20;98.60;;;;;;5073376;28;20450;-81
2023/05/19 00:44:39;;;;;;;3.60;0.90;;;12.20;98.40;;;;;;5073296;28;20497;-81
2023/05/19 00:47:08;;;;;;;5.53;1.10;;;12.20;98.50;;;;;;5073316;28;20470;-81
2023/05/19 00:49:35;;;;;;;1.03;0.90;;;12.10;98.70;;;;;;5073603;28;20445;-81
2023/05/19 00:52:02;;;;;;;2.10;1.27;;;12.10;98.90;;;;;;5073256;28;20471;-81
2023/05/19 00:54:29;;;;;;;1.33;0.83;;;12.00;99.80;;;;;;5073162;28;20464;-81
2023/05/19 00:56:57;;;;;;;3.33;0.90;;;11.90;99.90;;;;;;5073214;28;20453;-81
2023/05/19 00:59:23;;;;;;;3.90;0.90;;;11.90;99.90;;;;;;5073174;28;20543;-81
2023/05/19 01:01:50;;;;;;;2.30;0.93;;;11.90;99.90;;;;;;5073209;28;20452;-81
2023/05/19 01:04:20;;;;;;;0.80;0.80;;;11.90;99.90;;;;;;5072707;28;20477;-81
2023/05/19 01:06:48;;;;;;;2.50;1.07;;;11.90;99.90;;;;;;5073292;28;20445;-81
2023/05/19 01:09:15;;;;;;;1.07;1.07;;;11.90;99.90;;;;;;5073102;28;20473;-81
2023/05/19 01:11:42;;;;;;;1.87;1.33;;;11.90;99.90;;;;;;5072756;28;20964;-81
2023/05/19 01:14:09;;;;;;;2.03;1.07;;;11.90;99.90;;;;;;5072666;28;20988;-82
2023/05/19 01:16:41;;;;;;;1.83;1.03;;;11.90;99.90;;;;;;5073034;28;20450;-81
2023/05/19 01:19:24;;;;;;;1.33;1.17;;;11.90;99.90;;;;;;5073034;28;20437;-81
2023/05/19 01:22:22;;;;;;;3.97;1.20;;;11.80;99.90;;;;;;5073036;28;20434;-81
2023/05/19 01:25:21;;;;;;;3.57;1.30;;;11.80;99.90;;;;;;5072536;28;20474;-81
2023/05/19 01:28:30;;;;;;;1.30;1.00;;;11.70;99.90;;;;;;5072542;28;20507;-81
2023/05/19 01:31:00;;;;;;;0.83;0.83;;;11.70;99.90;;;;;;5065571;28;20453;-81
2023/05/19 01:33:29;;;;;;;1.47;1.23;;;11.70;99.90;;;;;;5072897;28;20472;-81
2023/05/19 01:35:57;;;;;;;1.43;0.90;;;11.70;99.90;;;;;;5072866;28;20453;-81
2023/05/19 01:38:25;;;;;;;1.00;0.70;;;11.70;99.90;;;;;;5072823;28;20454;-81
2023/05/19 01:40:54;;;;;;;3.13;1.00;;;11.70;99.90;;;;;;5072805;28;20438;-81
2023/05/19 01:43:21;;;;;;;1.13;0.93;;;11.70;99.90;;;;;;5072677;28;20477;-81
2023/05/19 01:45:49;;;;;;;2.53;0.67;;;11.70;99.90;;;;;;5073047;28;20441;-81
2023/05/19 01:48:18;;;;;;;1.60;1.10;;;11.70;99.90;;;;;;5073302;28;20564;-81
2023/05/19 01:50:46;;;;;;;3.20;0.73;;;11.60;99.90;;;;;;5076425;28;20449;-81
2023/05/19 01:53:12;;;;;;;1.30;1.10;;;11.60;99.90;;;;;;5076266;28;20472;-81
2023/05/19 01:55:43;;;;;;;0.70;0.67;;;11.70;99.90;;;;;;5076555;28;20449;-81
2023/05/19 01:58:18;;;;;;;3.00;1.00;;;11.60;99.90;;;;;;5076309;28;20440;-81
2023/05/19 02:00:54;;;;;;;3.13;0.90;;;11.70;99.90;;;;;;5076272;28;20490;-82
2023/05/19 02:03:44;;;;;;;3.63;0.80;;;11.60;99.90;;;;;;5075825;28;20489;-81
2023/05/19 02:06:23;;;;;;;1.17;1.07;;;11.60;99.90;;;;;;5076097;28;20457;-81
2023/05/19 02:08:57;;;;;;;1.33;1.23;;;11.50;99.90;;;;;;5075724;28;21048;-81
2023/05/19 02:11:31;;;;;;;2.60;1.23;;;11.50;99.90;;;;;;5076036;28;20461;-81
2023/05/19 02:14:02;;;;;;;0.90;0.90;;;11.50;99.90;;;;;;5076782;28;20919;-81
2023/05/19 02:16:29;;;;;;;5.90;1.43;;;11.50;99.90;;;;;;5075966;28;20430;-81
2023/05/19 02:18:58;;;;;;;0.70;0.70;;;11.50;99.90;;;;;;5076079;28;20437;-81
2023/05/19 02:21:25;;;;;;;1.43;0.80;;;11.40;99.90;;;;;;5075859;28;20446;-81
2023/05/19 02:23:52;;;;;;;2.33;1.10;;;11.50;99.90;;;;;;5075726;28;20473;-81
2023/05/19 02:26:18;;;;;;;1.53;1.20;;;11.40;99.90;;;;;;5075469;28;20941;-81
2023/05/19 02:28:45;;;;;;;1.00;0.90;;;11.50;99.90;;;;;;5075827;28;20482;-81
2023/05/19 02:31:12;;;;;;;0.83;0.80;;;11.40;99.90;;;;;;5075673;28;20476;-81
2023/05/19 02:33:38;;;;;;;1.37;0.80;;;11.50;99.90;;;;;;5075571;28;20470;-81
2023/05/19 02:36:07;;;;;;;5.20;0.70;;;11.50;99.90;;;;;;5075582;28;20472;-82
2023/05/19 02:38:35;;;;;;;1.47;0.90;;;11.50;99.90;;;;;;5075557;28;20446;-81
2023/05/19 02:41:02;;;;;;;1.37;0.70;;;11.50;99.90;;;;;;5075176;28;20937;-81
2023/05/19 02:43:29;;;;;;;3.90;1.00;;;11.40;99.90;;;;;;5075381;28;20480;-81
2023/05/19 02:45:56;;;;;;;1.23;0.83;;;11.40;99.90;;;;;;5075483;28;20434;-81
2023/05/19 02:48:22;;;;;;;0.80;0.80;;;11.40;99.90;;;;;;5075275;28;20481;-81
2023/05/19 02:50:49;;;;;;;1.03;0.83;;;11.40;99.90;;;;;;5075332;28;20450;-81
2023/05/19 02:53:17;;;;;;;1.10;0.93;;;11.40;99.90;;;;;;5074848;28;20473;-81
2023/05/19 02:55:44;;;;;;;1.07;0.63;;;11.40;99.90;;;;;;5075218;28;20445;-81
2023/05/19 02:58:10;;;;;;;1.10;1.00;;;11.40;99.90;;;;;;5074801;28;20444;-81
2023/05/19 03:00:37;;;;;;;0.83;0.83;;;11.40;99.90;;;;;;5074093;28;20449;-81
2023/05/19 03:03:04;;;;;;;1.53;1.30;;;11.40;99.90;;;;;;5074733;28;20473;-82
2023/05/19 03:05:31;;;;;;;2.47;0.83;;;11.40;99.90;;;;;;5074986;28;20449;-81
2023/05/19 03:07:57;;;;;;;1.43;0.90;;;11.40;99.90;;;;;;5074801;28;20913;-81
2023/05/19 03:10:26;;;;;;;1.37;0.90;;;11.40;99.90;;;;;;5074600;28;20960;-81
2023/05/19 03:12:52;;;;;;;1.47;0.77;;;11.40;99.90;;;;;;5074757;28;20442;-81
2023/05/19 03:15:21;;;;;;;1.00;0.80;;;11.50;99.90;;;;;;5074842;28;20446;-81
2023/05/19 03:17:48;;;;;;;3.17;1.20;;;11.40;99.90;;;;;;5074488;28;21002;-82
2023/05/19 03:20:15;;;;;;;2.93;1.43;;;11.40;99.90;;;;;;5074444;28;20438;-81
2023/05/19 03:22:42;;;;;;;7.30;2.03;;;11.40;99.90;;;;;;5074667;28;20441;-81
2023/05/19 03:25:09;;;;;;;3.60;1.07;;;11.40;99.90;;;;;;5074525;28;20474;-81
2023/05/19 03:27:37;;;;;;;1.00;1.00;;;11.30;99.90;;;;;;5074438;28;20457;-81
2023/05/19 03:30:05;;;;;;;1.93;1.10;;;11.40;99.90;;;;;;5074513;28;20454;-81
2023/05/19 03:32:32;;;;;;;1.03;0.70;;;11.30;99.90;;;;;;5074478;28;20458;-81
2023/05/19 03:34:59;;;;;;;1.17;1.10;;;11.40;99.90;;;;;;5074386;28;20471;-81
2023/05/19 03:37:26;;;;;;;1.33;0.87;;;11.30;99.90;;;;;;5074075;28;21000;-81
2023/05/19 03:39:52;;;;;;;2.00;1.00;;;11.30;99.90;;;;;;5074317;28;20445;-81
2023/05/19 03:42:19;;;;;;;4.70;1.00;;;11.40;99.90;;;;;;5074191;28;20945;-81
2023/05/19 03:44:47;;;;;;;1.07;0.97;;;11.30;99.90;;;;;;5074175;28;20473;-81
2023/05/19 03:47:14;;;;;;;1.03;0.70;;;11.30;99.90;;;;;;5073872;28;20445;-81
2023/05/19 03:49:41;;;;;;;2.43;0.93;;;11.30;99.90;;;;;;5074005;28;20489;-81
2023/05/19 03:52:08;;;;;;;1.53;1.37;;;11.40;99.90;;;;;;5074093;28;20448;-82
2023/05/19 03:54:37;;;;;;;0.70;0.70;;;11.40;99.90;;;;;;5073967;28;20837;-81
2023/05/19 03:57:05;;;;;;;1.80;1.10;;;11.40;99.90;;;;;;5073876;28;20457;-81
2023/05/19 03:59:31;;;;;;;1.30;1.13;;;11.30;99.90;;;;;;5074192;28;20549;-81
2023/05/19 04:01:59;;;;;;;1.27;0.97;;;11.30;99.90;;;;;;5073870;28;20457;-81
2023/05/19 04:04:27;;;;;;;1.33;1.07;;;11.30;99.90;;;;;;5073715;28;20485;-82
2023/05/19 04:06:53;;;;;;;1.63;0.97;;;11.30;99.90;;;;;;5073765;28;20466;-81
2023/05/19 04:09:22;;;;;;;1.07;0.80;;;11.30;99.90;;;;;;5073750;28;20488;-82
2023/05/19 04:11:49;;;;;;;4.23;1.10;;;11.30;99.90;;;;;;5073555;28;20506;-82
2023/05/19 04:14:16;;;;;;;2.30;1.00;;;11.30;99.90;;;;;;5073674;28;20466;-82
2023/05/19 04:16:42;;;;;;;1.30;1.20;;;11.30;99.90;;;;;;5073672;28;20456;-82
2023/05/19 04:19:11;;;;;;;1.67;0.70;;;11.30;99.90;;;;;;5073625;28;20453;-82
2023/05/19 04:21:37;;;;;;;1.10;1.00;;;11.30;99.90;;;;;;5073801;28;20449;-82
2023/05/19 04:24:05;;;;;;;0.80;0.80;;;11.30;99.90;;;;;;5073367;28;20473;-82
2023/05/19 04:26:33;;;;;;;1.10;0.90;;;11.30;99.90;;;;;;5073538;28;20533;-82
2023/05/19 04:29:00;;;;;;;1.10;0.73;;;11.30;99.90;;;;;;5073459;28;20841;-82
2023/05/19 04:31:27;;;;;;;1.27;1.00;;;11.30;99.90;;;;;;5073647;28;20488;-81
2023/05/19 04:33:54;;;;;;;1.10;1.00;;;11.40;99.90;;;;;;5073115;28;21051;-82
2023/05/19 04:36:22;;;;;;;0.70;0.70;;;11.40;99.90;;;;;;5073228;28;20457;-82
2023/05/19 04:38:53;;;;;;;1.20;1.00;;;11.50;99.90;;;;;;5074252;28;20481;-82
2023/05/19 04:41:20;;;;;;;1.90;0.83;;;11.50;99.90;;;;;;5073476;28;20469;-81
2023/05/19 04:43:48;;;;;;;1.37;0.90;;;11.40;99.90;;;;;;5073526;28;20473;-82
2023/05/19 04:46:15;;;;;;;0.80;0.77;;;11.40;99.90;;;;;;5073030;28;20492;-82
2023/05/19 04:48:42;;;;;;;1.10;1.00;;;11.40;99.90;;;;;;5072935;28;20861;-82
2023/05/19 04:51:12;;;;;;;0.80;0.80;;;11.50;99.90;;;;;;5073398;28;20449;-81
2023/05/19 04:53:41;;;;;;;2.87;1.00;;;11.50;99.90;;;;;;5073232;28;20474;-82
2023/05/19 04:56:09;;;;;;;0.90;0.70;;;11.70;99.90;;;;;;5073539;28;20445;-81
2023/05/19 04:58:36;;;;;;;1.33;1.00;;;11.70;99.90;;;;;;5073202;28;20446;-82
2023/05/19 05:01:03;;;;;;;6.87;1.37;;;11.80;99.90;;;;;;5072870;28;20953;-81
2023/05/19 05:03:31;;;;;;;1.53;0.60;;;11.90;99.90;;;;;;5072814;28;20484;-81
2023/05/19 05:05:58;;;;;;;1.30;1.20;;;11.90;99.90;;;;;;5073136;28;20503;-82
2023/05/19 05:08:26;;;;;;;1.83;0.87;;;11.90;99.90;;;;;;5073061;28;20569;-82
2023/05/19 05:10:54;;;;;;;3.50;0.80;;;11.90;99.90;;;;;;5073056;28;20446;-82
2023/05/19 05:13:23;;;;;;;1.20;1.10;;;11.90;99.90;;;;;;5072696;28;20984;-82
2023/05/19 05:15:50;;;;;;;6.47;1.83;;;12.00;99.90;;;;;;5072833;28;20438;-82
2023/05/19 05:18:18;;;;;;;0.70;0.70;;;11.90;99.90;;;;;;5073007;28;20453;-82
2023/05/19 05:20:47;;;;;;;2.37;1.10;;;11.90;99.90;;;;;;5072749;28;20941;-82
2023/05/19 05:23:15;;;;;;;1.93;1.27;;;12.00;99.90;;;;;;5073196;28;20834;-81
2023/05/19 05:25:43;;;;;;;2.10;1.03;;;12.00;99.90;;;;;;5076868;28;20859;-82
2023/05/19 05:28:11;;;;;;;2.67;0.97;;;12.10;99.90;;;;;;5076803;28;20445;-82
2023/05/19 05:30:38;;;;;;;1.43;0.80;;;12.20;99.90;;;;;;5076854;28;20492;-82
2023/05/19 05:33:05;;;;;;;2.40;0.93;;;12.20;99.90;;;;;;5076366;28;21024;-82
2023/05/19 05:35:31;;;;;;;0.80;0.80;;;12.20;99.90;;;;;;5076690;28;20476;-82
2023/05/19 05:37:58;;;;;;;1.17;1.07;;;12.30;99.90;;;;;;5076399;28;20928;-82
2023/05/19 05:40:25;;;;;;;1.70;1.20;;;12.30;99.90;;;;;;5076639;28;20445;-81
2023/05/19 05:42:54;;;;;;;1.13;1.07;;;12.40;99.90;;;;;;5076492;28;20836;-82
2023/05/19 05:45:22;;;;;;;1.17;0.97;;;12.30;99.90;;;;;;5076545;28;20453;-82
2023/05/19 05:47:49;;;;;;;2.87;1.00;;;12.30;99.90;;;;;;5076139;28;20808;-82
2023/05/19 05:50:17;;;;;;;1.10;0.93;;;12.40;99.90;;;;;;5075997;28;20473;-82
2023/05/19 05:52:46;;;;;;;1.63;0.80;;;12.50;99.90;;;;;;5076377;28;20449;-82
2023/05/19 05:55:14;;;;;;;2.03;1.00;;;12.50;99.90;;;;;;5076392;28;20449;-82
2023/05/19 05:57:41;;;;;;;0.67;0.67;;;12.70;99.90;;;;;;5076281;28;20453;-81
2023/05/19 06:00:14;;;;;;;2.70;1.63;;;12.90;99.90;;;;;;5076253;28;20449;-81
2023/05/19 06:02:43;;;;;;;1.23;0.63;;;13.00;99.90;;;;;;5075942;28;20584;-82
2023/05/19 06:05:11;;;;;;;5.93;1.00;;;13.20;99.90;;;;;;5076075;28;20813;-81
2023/05/19 06:07:38;;;;;;;2.80;1.07;;;13.40;99.90;;;;;;5076095;28;20457;-82
2023/05/19 06:10:06;;;;;;;1.10;1.10;;;13.60;99.90;;;;;;5076201;28;20481;-81
2023/05/19 06:12:33;;;;;;;1.40;1.30;;;13.80;99.90;;;;;;5076045;28;20457;-81
2023/05/19 06:14:59;;;;;;;1.27;0.87;;;14.00;99.90;;;;;;5075917;28;20461;-81
2023/05/19 06:17:26;;;;;;;0.80;0.70;;;14.10;99.90;;;;;;5075964;28;20450;-81
2023/05/19 06:19:54;;;;;;;2.10;1.50;;;14.30;99.90;;;;;;5075642;28;20453;-82
2023/05/19 06:22:21;;;;;;;3.23;1.27;;;14.40;99.90;;;;;;5075577;28;20982;-82
2023/05/19 06:24:48;;;;;;;2.93;1.83;;;14.50;99.90;;;;;;5075776;28;20465;-82
2023/05/19 06:27:14;;;;;;;1.17;0.90;;;14.80;99.90;;;;;;5075428;28;20928;-81
2023/05/19 06:29:41;;;;;;;1.43;1.33;;;15.00;99.90;;;;;;5075706;28;20488;-82
2023/05/19 06:32:08;;;;;;;2.17;1.20;;;15.00;99.90;;;;;;5076498;28;20456;-81
2023/05/19 06:34:37;;;;;;;1.77;1.00;;;15.00;99.90;;;;;;5075484;28;20466;-81
2023/05/19 06:37:05;;;;;;;1.13;1.00;;;15.10;99.90;;;;;;5075503;28;20938;-82
2023/05/19 06:39:32;;;;;;;1.70;0.90;;;15.30;99.90;;;;;;5075536;28;20510;-81
2023/05/19 06:41:58;;;;;;;4.20;1.17;;;15.40;99.90;;;;;;5075477;28;20450;-82
2023/05/19 06:44:25;;;;;;;0.90;0.80;;;15.40;99.90;;;;;;5075233;28;20996;-82
2023/05/19 06:46:52;;;;;;;6.63;1.43;;;15.40;99.90;;;;;;5075401;28;20473;-83
2023/05/19 06:49:18;;;;;;;1.00;0.90;;;15.40;99.90;;;;;;5074970;28;20988;-82
2023/05/19 06:51:45;;;;;;;1.53;1.43;;;15.30;99.90;;;;;;5075319;28;20450;-82
2023/05/19 06:54:14;;;;;;;2.60;1.10;;;15.40;99.90;;;;;;5074878;28;20473;-81
2023/05/19 06:56:41;;;;;;;1.77;1.53;;;15.50;99.90;;;;;;5074890;28;20485;-81
2023/05/19 06:59:08;;;;;;;2.70;0.87;;;15.60;99.90;;;;;;5075167;28;20445;-80
2023/05/19 07:01:34;;;;;;;2.60;1.33;;;15.80;99.90;;;;;;5074883;28;20821;-81
2023/05/19 07:04:01;;;;;;;1.50;0.97;;;16.00;99.90;;;;;;5074584;28;20489;-81
2023/05/19 07:06:28;;;;;;;2.20;1.30;;;16.30;99.90;;;;;;5075028;28;20457;-81
2023/05/19 07:08:55;;;;;;;2.07;1.80;;;16.60;99.90;;;;;;5075091;28;20482;-81
2023/05/19 07:11:23;;;;;;;1.30;1.20;;;16.80;99.90;;;;;;5074879;28;20492;-81
2023/05/19 07:13:50;;;;;;;1.20;1.10;;;17.00;99.90;;;;;;5074571;28;20469;-81
2023/05/19 07:16:16;;;;;;;3.33;1.33;;;17.10;99.90;;;;;;5075086;28;20472;-81
2023/05/19 07:18:43;;;;;;;5.80;1.70;;;17.10;99.90;;;;;;5074842;28;20444;-81
2023/05/19 07:21:10;;;;;;;1.77;1.33;;;17.10;99.90;;;;;;5074730;28;20472;-81
2023/05/19 07:23:37;;;;;;;1.23;1.13;;;16.90;99.90;;;;;;5074605;28;20465;-81
2023/05/19 07:26:03;;;;;;;1.20;1.10;;;16.70;99.90;;;;;;5074599;28;20452;-81
2023/05/19 07:28:33;;;;;;;1.83;1.30;;;16.60;99.90;;;;;;5074238;28;20966;-81
2023/05/19 07:30:59;;;;;;;1.00;1.00;;;16.30;99.90;;;;;;5074406;28;20484;-82
2023/05/19 07:33:26;;;;;;;1.73;1.30;;;16.10;99.90;;;;;;5074009;28;21007;-81
2023/05/19 07:35:53;;;;;;;1.37;1.10;;;15.80;99.90;;;;;;5074392;28;20499;-81
2023/05/19 07:38:20;;;;;;;1.47;1.17;;;15.50;99.90;;;;;;5074362;28;20445;-81
2023/05/19 07:40:47;;;;;;;1.53;1.43;;;15.40;99.90;;;;;;5074073;28;20456;-81
2023/05/19 07:43:13;;;;;;;3.97;1.90;;;15.30;99.90;;;;;;5074366;28;20480;-81
2023/05/19 07:45:41;;;;;;;1.63;1.27;;;15.40;99.90;;;;;;5073632;28;20979;-81
2023/05/19 07:48:08;;;;;;;2.63;1.40;;;15.30;99.90;;;;;;5074034;28;20450;-80
2023/05/19 07:50:35;;;;;;;1.30;1.20;;;15.40;99.90;;;;;;5074084;28;20845;-81
2023/05/19 07:53:02;;;;;;;5.23;1.63;;;15.30;99.90;;;;;;5074272;28;20438;-80
2023/05/19 07:55:29;;;;;;;1.10;1.00;;;15.30;99.90;;;;;;5074081;28;20449;-79
2023/05/19 07:57:56;;;;;;;1.83;1.53;;;15.50;99.90;;;;;;5073638;28;20453;-80
2023/05/19 08:00:23;;;;;;;2.23;1.10;;;15.60;99.90;;;;;;5073955;28;20442;-82
2023/05/19 08:02:51;;;;;;;2.30;1.10;;;15.70;99.90;;;;;;5073760;28;20847;-83
2023/05/19 08:05:18;;;;;;;2.90;1.17;;;15.80;99.90;;;;;;5073862;28;21021;-86
2023/05/19 08:07:45;;;;;;;1.27;1.10;;;16.00;99.90;;;;;;5074379;28;20455;-83
2023/05/19 08:10:11;;;;;;;1.37;0.97;;;16.20;99.90;;;;;;5073651;28;20485;-81
2023/05/19 08:12:38;;;;;;;1.83;1.00;;;16.30;99.90;;;;;;5074204;28;20445;-85
2023/05/19 08:15:06;;;;;;;2.07;1.27;;;16.20;99.90;;;;;;5073830;28;20532;-81
2023/05/19 08:17:32;;;;;;;4.60;1.20;;;16.00;99.90;;;;;;5073725;28;20449;-81
2023/05/19 08:20:02;;;;;;;1.90;1.00;;;15.90;99.90;;;;;;5073530;28;20446;-81
2023/05/19 08:22:29;;;;;;;4.23;1.00;;;15.70;99.90;;;;;;5073310;28;20878;-81
2023/05/19 08:24:56;;;;;;;1.10;0.80;;;15.40;99.90;;;;;;5073518;28;20892;-80
2023/05/19 08:27:23;;;;;;;1.33;1.07;;;15.20;99.90;;;;;;5073559;28;20450;-82
2023/05/19 08:29:50;;;;;;;1.53;0.93;;;15.00;99.90;;;;;;5073488;28;20481;-81
2023/05/19 08:32:17;;;;;;;4.57;1.93;;;15.00;99.90;;;;;;5073521;28;20449;-82
2023/05/19 08:34:43;;;;;;;1.63;1.13;;;15.00;99.90;;;;;;5073432;28;20461;-82
2023/05/19 08:37:12;;;;;;;4.10;1.40;;;15.00;99.90;;;;;;5073152;28;20942;-81
2023/05/19 08:39:38;;;;;;;1.37;1.00;;;14.80;99.90;;;;;;5073462;28;20438;-81
2023/05/19 08:42:06;;;;;;;2.27;1.40;;;14.70;99.90;;;;;;5074081;28;20449;-82
2023/05/19 08:44:34;;;;;;;1.67;0.83;;;14.60;99.90;;;;;;5074414;28;20841;-81
2023/05/19 08:47:03;;;;;;;1.87;1.03;;;14.70;99.90;;;;;;5073347;28;20449;-81
2023/05/19 08:49:35;;;;;;;5.77;1.67;;;14.80;99.90;;;;;;5073736;28;20531;-81
2023/05/19 08:52:09;;;;;;;1.47;1.37;;;14.80;99.90;;;;;;5073341;28;20426;-80
2023/05/19 08:54:45;;;;;;;3.60;1.40;;;14.90;99.90;;;;;;5073336;28;20504;-82
2023/05/19 08:57:12;;;;;;;1.63;1.10;;;15.00;99.90;;;;;;5074174;28;20796;-81
2023/05/19 08:59:41;;;;;;;1.37;1.00;;;14.90;99.90;;;;;;5076687;28;20449;-83
2023/05/19 09:02:11;;;;;;;2.37;1.00;;;15.00;99.90;;;;;;5077353;28;20499;-82
2023/05/19 09:04:38;;;;;;;0.70;0.70;;;15.00;99.90;;;;;;5076715;28;20485;-82
2023/05/19 09:07:06;;;;;;;1.20;0.93;;;15.20;99.90;;;;;;5077008;28;20452;-82
2023/05/19 09:09:32;;;;;;;2.10;1.13;;;15.30;99.90;;;;;;5077215;28;20564;-82
2023/05/19 09:12:01;;;;;;;1.80;1.03;;;15.30;99.90;;;;;;5077173;28;20493;-82
2023/05/19 09:14:28;;;;;;;1.00;0.90;;;15.30;99.90;;;;;;5077075;28;20480;-82
2023/05/19 09:16:55;;;;;;;0.83;0.83;;;15.20;99.90;;;;;;5077141;28;20452;-82
2023/05/19 09:19:22;;;;;;;1.20;1.10;;;15.20;99.90;;;;;;5077100;28;20457;-82
2023/05/19 09:21:59;;;;;;;0.93;0.93;;;15.20;99.90;;;;;;5076982;28;20503;-82
2023/05/19 09:24:26;;;;;;;6.17;1.23;;;15.20;99.90;;;;;;5076937;28;20468;-81
2023/05/19 09:26:56;;;;;;;2.20;1.03;;;15.20;99.90;;;;;;5076624;28;20448;-82
2023/05/19 09:29:24;;;;;;;0.70;0.70;;;15.20;99.90;;;;;;5077414;28;20433;-82
2023/05/19 09:31:53;;;;;;;2.13;0.90;;;15.20;99.90;;;;;;5076510;28;20999;-81
2023/05/19 09:34:20;;;;;;;1.23;0.93;;;15.10;99.90;;;;;;5076347;28;20985;-82
2023/05/19 09:36:49;;;;;;;1.97;1.10;;;15.10;99.90;;;;;;5077155;28;20812;-81
2023/05/19 09:39:17;;;;;;;1.00;0.87;;;15.10;99.90;;;;;;5076607;28;20445;-82
2023/05/19 09:41:44;;;;;;;1.40;0.83;;;15.00;99.90;;;;;;5076640;28;20449;-82
2023/05/19 09:44:21;;;;;;;2.40;1.47;;;15.00;99.90;;;;;;5076733;28;20477;-82
2023/05/19 09:46:51;;;;;;;1.00;1.00;;;14.80;99.90;;;;;;5076244;28;20964;-81
2023/05/19 09:49:22;;;;;;;3.50;1.20;;;14.80;99.90;;;;;;5076480;28;20476;-82
2023/05/19 09:51:54;;;;;;;1.63;1.00;;;14.80;99.90;;;;;;5076246;28;20438;-82
2023/05/19 09:54:22;;;;;;;1.73;1.07;;;14.80;99.90;;;;;;5076298;28;20469;-82
2023/05/19 09:56:57;;;;;;;1.00;0.90;;;14.70;99.90;;;;;;5076338;28;20450;-82
2023/05/19 09:59:25;;;;;;;0.83;0.80;;;14.70;99.90;;;;;;5076325;28;20433;-82
2023/05/19 10:01:55;;;;;;;1.80;1.60;;;14.60;99.90;;;;;;5076207;28;20442;-82
2023/05/19 10:04:22;;;;;;;4.90;1.20;;;14.50;99.90;;;;;;5075800;28;20485;-82
2023/05/19 10:06:53;;;;;;;2.10;1.07;;;14.50;99.90;;;;;;5075879;28;20445;-82
2023/05/19 10:09:22;;;;;;;1.50;0.90;;;14.40;99.90;;;;;;5075662;28;20441;-81
2023/05/19 10:11:51;;;;;;;3.13;1.07;;;14.40;99.90;;;;;;5075963;28;21121;-82
2023/05/19 10:14:19;;;;;;;0.80;0.80;;;14.40;99.90;;;;;;5075757;28;20822;-82
2023/05/19 10:16:48;;;;;;;1.10;1.10;;;14.40;99.90;;;;;;5075770;28;20875;-82
2023/05/19 10:19:17;;;;;;;1.37;0.90;;;14.40;99.90;;;;;;5075986;28;20476;-82
2023/05/19 10:21:44;;;;;;;2.07;1.30;;;14.40;99.90;;;;;;5075920;28;20445;-82
2023/05/19 10:24:10;;;;;;;1.70;1.30;;;14.40;99.90;;;;;;5075756;28;20466;-82
2023/05/19 10:26:39;;;;;;;2.90;1.40;;;14.30;99.90;;;;;;5075811;28;20460;-83
2023/05/19 10:29:07;;;;;;;1.63;1.50;;;14.30;99.90;;;;;;5075817;28;20445;-82
2023/05/19 10:31:35;;;;;;;0.93;0.93;;;14.30;99.90;;;;;;5075894;28;20477;-82
2023/05/19 10:34:23;;;;;;;1.33;1.23;;;14.40;99.90;;;;;;5075580;28;20469;-82
2023/05/19 10:37:00;;;;;;;3.27;1.30;;;14.40;99.90;;;;;;5075652;28;20811;-82
2023/05/19 10:39:34;;;;;;;2.10;1.00;;;14.40;99.90;;;;;;5075659;28;20436;-83
2023/05/19 10:42:09;;;;;;;1.60;1.10;;;14.40;99.90;;;;;;5075570;28;20473;-84
2023/05/19 10:44:46;;;;;;;4.20;1.03;;;14.40;99.90;;;;;;5075140;28;20471;-83
2023/05/19 10:47:13;;;;;;;3.23;1.10;;;14.30;99.90;;;;;;5075577;28;20418;-84
2023/05/19 10:49:40;;;;;;;1.30;0.90;;;14.40;99.90;;;;;;5075328;28;20449;-83
2023/05/19 10:52:21;;;;;;;2.00;0.90;;;14.40;99.90;;;;;;5075357;28;20457;-82
2023/05/19 10:54:48;;;;;;;5.87;1.10;;;14.40;99.90;;;;;;5074975;28;20995;-83
2023/05/19 10:57:16;;;;;;;1.03;0.80;;;14.50;99.90;;;;;;5074953;28;20453;-82
2023/05/19 10:59:43;;;;;;;6.60;1.10;;;14.50;99.90;;;;;;5075242;28;20475;-82
2023/05/19 11:02:31;;;;;;;2.00;1.07;;;14.40;99.90;;;;;;5074765;28;20438;-82
2023/05/19 11:05:08;;;;;;;1.33;0.90;;;14.30;99.90;;;;;;5074486;28;20472;-83
2023/05/19 11:07:36;;;;;;;3.10;1.00;;;14.30;99.90;;;;;;5075084;28;20457;-83
2023/05/19 11:10:07;;;;;;;8.43;1.20;;;14.40;99.90;;;;;;5074559;28;20456;-83
2023/05/19 11:12:41;;;;;;;2.80;1.20;;;14.40;99.90;;;;;;5074618;28;20859;-83
2023/05/19 11:15:11;;;;;;;1.10;1.00;;;14.50;99.90;;;;;;5074863;28;20476;-83
2023/05/19 11:17:39;;;;;;;0.80;0.70;;;14.60;99.90;;;;;;5074800;28;20523;-82
2023/05/19 11:20:09;;;;;;;1.43;0.87;;;14.70;99.90;;;;;;5074474;28;20826;-83
2023/05/19 11:22:39;;;;;;;1.37;0.73;;;14.60;99.90;;;;;;5073626;28;20430;-83
2023/05/19 11:25:08;;;;;;;6.53;1.00;;;14.60;99.90;;;;;;5074646;28;20466;-83
2023/05/19 11:27:36;;;;;;;1.80;0.93;;;14.50;99.90;;;;;;5074285;28;20968;-83
2023/05/19 11:30:13;;;;;;;1.53;1.30;;;14.50;99.90;;;;;;5074447;28;20827;-82
2023/05/19 11:32:41;;;;;;;1.13;0.73;;;14.50;99.90;;;;;;5074535;28;20525;-84
2023/05/19 11:35:09;;;;;;;2.90;1.53;;;14.50;99.90;;;;;;5074092;28;20461;-83
2023/05/19 11:37:39;;;;;;;1.53;1.00;;;14.40;99.90;;;;;;5074400;28;20454;-83
2023/05/19 11:40:07;;;;;;;1.90;1.30;;;14.40;99.90;;;;;;5074334;28;20499;-83
2023/05/19 11:42:35;;;;;;;1.10;0.93;;;14.50;99.90;;;;;;5074276;28;20481;-82
2023/05/19 11:45:02;;;;;;;3.50;1.37;;;14.50;99.90;;;;;;5074209;28;20478;-83
2023/05/19 11:47:31;;;;;;;3.30;1.30;;;14.60;99.90;;;;;;5074218;28;20449;-83
2023/05/19 11:49:58;;;;;;;1.80;1.10;;;14.70;99.90;;;;;;5074067;28;20503;-83
2023/05/19 11:52:26;;;;;;;1.43;1.33;;;14.70;99.90;;;;;;5074345;28;20813;-82
2023/05/19 11:54:55;;;;;;;2.60;1.07;;;14.60;99.90;;;;;;5074052;28;20470;-84
2023/05/19 11:57:22;;;;;;;1.63;1.23;;;14.60;99.90;;;;;;5073935;28;20503;-83
2023/05/19 11:59:51;;;;;;;1.37;1.20;;;14.60;99.90;;;;;;5073746;28;20445;-83
2023/05/19 12:02:19;;;;;;;1.17;1.07;;;14.60;99.90;;;;;;5073987;28;20452;-82
2023/05/19 12:04:46;;;;;;;3.23;1.20;;;14.50;99.90;;;;;;5073834;28;20471;-83
2023/05/19 12:07:16;;;;;;;1.47;0.80;;;14.40;99.90;;;;;;5073512;28;20967;-84
2023/05/19 12:09:44;;;;;;;1.27;1.03;;;14.30;99.90;;;;;;5073555;28;20988;-83
2023/05/19 12:12:15;;;;;;;1.20;1.10;;;14.30;99.90;;;;;;5073709;28;20572;-83
2023/05/19 12:14:42;;;;;;;1.40;1.30;;;14.40;99.90;;;;;;5074465;28;20552;-83
2023/05/19 12:17:13;;;;;;;1.40;0.90;;;14.40;99.90;;;;;;5073714;28;20450;-84
2023/05/19 12:19:41;;;;;;;0.97;0.87;;;14.50;99.90;;;;;;5073670;28;20453;-82
2023/05/19 12:22:08;;;;;;;1.27;1.17;;;14.40;99.90;;;;;;5073684;28;20442;-83
2023/05/19 12:24:36;;;;;;;1.87;1.37;;;14.30;99.90;;;;;;5073236;28;20471;-83
2023/05/19 12:27:11;;;;;;;2.10;1.03;;;14.30;99.90;;;;;;5073596;28;20449;-84
2023/05/19 12:29:40;;;;;;;1.73;1.17;;;14.30;99.90;;;;;;5073612;28;20441;-82
2023/05/19 12:32:08;;;;;;;2.87;1.37;;;14.20;99.90;;;;;;5073324;28;20509;-83
2023/05/19 12:34:36;;;;;;;7.40;0.80;;;14.40;99.90;;;;;;5073611;28;20465;-82
2023/05/19 12:37:04;;;;;;;2.30;0.83;;;14.40;99.90;;;;;;5073488;28;20484;-83
2023/05/19 12:39:31;;;;;;;2.63;1.27;;;14.40;99.90;;;;;;5073185;28;20446;-82
2023/05/19 12:42:02;;;;;;;4.57;1.33;;;14.40;99.90;;;;;;5075258;28;20491;-82
2023/05/19 12:44:30;;;;;;;5.90;1.80;;;14.40;99.90;;;;;;5073130;28;20984;-83
2023/05/19 12:46:59;;;;;;;2.17;1.30;;;14.30;99.90;;;;;;5073293;28;20442;-82
2023/05/19 12:49:26;;;;;;;3.20;1.03;;;14.30;99.90;;;;;;5073047;28;20449;-82
2023/05/19 12:51:53;;;;;;;2.23;1.30;;;14.20;99.90;;;;;;5072894;28;20488;-83
2023/05/19 12:54:20;;;;;;;2.33;1.33;;;14.20;99.90;;;;;;5072912;28;20518;-82